Time;durP1;ratioP1;P1;durP2;ratioP2;P2;SDS_P1;SDS_P2;PMS_P1;PMS_P2;Temp;Humidity;BMP_temperature;BMP_pressure;BME280_temperature;BME280_humidity;BME280_pressure;Samples;Min_cycle;Max_cycle;Signal;HPM_P1;HPM_P2
2021/03/28 00:00:54;;;;;;;4.72;1.88;;;-0.30;99.90;;;;;;2081035;28;20276;-63
2021/03/28 00:02:39;;;;;;;3.55;1.50;;;-0.40;99.90;;;;;;2081403;28;20281;-64
2021/03/28 00:03:44;;;;;;;4.55;1.90;;;-0.30;99.90;;;;;;2081792;28;20191;-63
2021/03/28 00:05:06;;;;;;;6.22;1.60;;;-0.30;99.90;;;;;;2081171;28;20242;-63
2021/03/28 00:06:28;;;;;;;2.40;1.52;;;-0.40;99.90;;;;;;2075756;28;20275;-64
2021/03/28 00:08:01;;;;;;;4.90;1.38;;;-0.40;99.90;;;;;;2076189;28;20178;-64
2021/03/28 00:09:24;;;;;;;3.90;1.70;;;-0.30;99.90;;;;;;2069412;28;20256;-65
2021/03/28 00:10:45;;;;;;;5.18;1.90;;;-0.30;99.90;;;;;;2081216;28;20191;-64
2021/03/28 00:12:10;;;;;;;6.10;1.83;;;-0.40;99.90;;;;;;2080545;28;20567;-64
2021/03/28 00:13:19;;;;;;;3.47;1.63;;;-0.40;99.90;;;;;;2084281;28;20198;-64
2021/03/28 00:14:35;;;;;;;5.03;1.90;;;-0.40;99.90;;;;;;2088208;28;20169;-65
2021/03/28 00:15:42;;;;;;;4.50;1.60;;;-0.40;99.90;;;;;;2081493;28;20183;-64
2021/03/28 00:16:48;;;;;;;3.25;1.77;;;-0.50;99.90;;;;;;2081699;28;20159;-64
2021/03/28 00:17:52;;;;;;;3.15;1.70;;;-0.50;99.90;;;;;;2080973;28;20263;-63
2021/03/28 00:19:19;;;;;;;3.80;1.50;;;-0.50;99.90;;;;;;2081225;28;20209;-64
2021/03/28 00:20:19;;;;;;;6.72;1.70;;;-0.50;99.90;;;;;;2085877;28;20163;-64
2021/03/28 00:21:28;;;;;;;3.73;1.70;;;-0.50;99.90;;;;;;2080940;28;20184;-64
2021/03/28 00:22:38;;;;;;;4.75;1.63;;;-0.60;99.90;;;;;;2080993;28;20625;-64
2021/03/28 00:23:48;;;;;;;4.72;1.50;;;-0.60;99.90;;;;;;2074055;28;20182;-65
2021/03/28 00:25:08;;;;;;;5.60;1.65;;;-0.60;99.90;;;;;;2073934;28;20722;-65
2021/03/28 00:26:44;;;;;;;5.82;2.00;;;-0.60;99.90;;;;;;2075009;28;20225;-64
2021/03/28 00:27:53;;;;;;;6.00;1.80;;;-0.60;99.90;;;;;;2064206;28;20235;-65
2021/03/28 00:29:11;;;;;;;3.53;1.73;;;-0.60;99.90;;;;;;2071737;28;20203;-64
2021/03/28 00:30:37;;;;;;;3.58;1.50;;;-0.60;99.90;;;;;;2080900;28;20656;-64
2021/03/28 00:31:55;;;;;;;2.33;1.15;;;-0.60;99.90;;;;;;2080299;28;20175;-64
2021/03/28 00:33:25;;;;;;;2.38;1.33;;;-0.70;99.90;;;;;;2081259;28;20200;-62
2021/03/28 00:34:43;;;;;;;3.28;1.50;;;-0.70;99.90;;;;;;2081440;28;20253;-64
2021/03/28 00:36:01;;;;;;;4.13;1.50;;;-0.70;99.90;;;;;;2080775;28;20162;-64
2021/03/28 00:37:07;;;;;;;5.75;1.70;;;-0.70;99.90;;;;;;2075119;28;20194;-64
2021/03/28 00:38:17;;;;;;;6.53;1.95;;;-0.70;99.90;;;;;;2080759;28;20189;-64
2021/03/28 00:39:40;;;;;;;3.10;1.50;;;-0.70;99.90;;;;;;2081000;28;20532;-64
2021/03/28 00:40:42;;;;;;;6.03;1.88;;;-0.70;99.90;;;;;;2080860;28;20692;-63
2021/03/28 00:41:56;;;;;;;4.78;1.85;;;-0.80;99.90;;;;;;2080372;28;20178;-63
2021/03/28 00:43:23;;;;;;;2.97;1.58;;;-0.80;99.90;;;;;;2074694;28;20160;-64
2021/03/28 00:44:25;;;;;;;6.43;1.85;;;-0.80;99.90;;;;;;2076718;28;20551;-64
2021/03/28 00:45:56;;;;;;;7.07;2.03;;;-0.80;99.90;;;;;;2081379;28;20193;-64
2021/03/28 00:47:02;;;;;;;6.35;1.83;;;-0.70;99.90;;;;;;2081614;28;20318;-62
2021/03/28 00:48:18;;;;;;;7.20;2.22;;;-0.80;99.90;;;;;;2080830;28;20243;-64
2021/03/28 00:49:39;;;;;;;7.70;1.63;;;-0.70;99.90;;;;;;2083086;28;20179;-63
2021/03/28 00:51:09;;;;;;;4.90;1.40;;;-0.70;99.90;;;;;;2080765;28;20166;-64
2021/03/28 00:52:25;;;;;;;3.63;1.65;;;-0.70;99.90;;;;;;2076572;28;20576;-66
2021/03/28 00:53:36;;;;;;;4.93;1.65;;;-0.80;99.90;;;;;;2082989;28;20208;-65
2021/03/28 00:54:49;;;;;;;8.30;1.70;;;-0.80;99.90;;;;;;2087316;28;20937;-65
2021/03/28 00:56:03;;;;;;;5.78;2.05;;;-0.80;99.90;;;;;;2081461;28;20205;-65
2021/03/28 00:57:15;;;;;;;3.35;1.95;;;-0.80;99.90;;;;;;2080580;28;20172;-65
2021/03/28 00:58:23;;;;;;;4.22;1.73;;;-0.80;99.90;;;;;;2074095;28;20171;-65
2021/03/28 01:00:05;;;;;;;3.65;2.20;;;-0.80;99.90;;;;;;2073588;28;20167;-65
2021/03/28 01:01:23;;;;;;;4.03;1.70;;;-0.90;99.90;;;;;;2080486;28;20607;-65
2021/03/28 01:02:32;;;;;;;6.97;2.38;;;-0.90;99.90;;;;;;2081290;28;20188;-66
2021/03/28 01:04:09;;;;;;;4.97;1.83;;;-0.90;99.90;;;;;;2080867;28;20160;-65
2021/03/28 01:05:43;;;;;;;4.50;2.15;;;-0.90;99.90;;;;;;2077484;28;20213;-65
2021/03/28 01:07:13;;;;;;;7.20;2.00;;;-0.90;99.90;;;;;;2072535;28;20199;-65
2021/03/28 01:08:34;;;;;;;4.05;2.05;;;-1.00;99.90;;;;;;2076285;28;20169;-65
2021/03/28 01:10:34;;;;;;;4.03;1.90;;;-1.00;99.90;;;;;;2075208;28;20678;-65
2021/03/28 01:11:57;;;;;;;6.15;1.73;;;-1.00;99.90;;;;;;2080539;28;20194;-66
2021/03/28 01:13:53;;;;;;;6.82;1.90;;;-1.00;99.90;;;;;;2080409;28;20624;-65
2021/03/28 01:15:23;;;;;;;3.75;1.58;;;-1.00;99.90;;;;;;2081079;28;20730;-64
2021/03/28 01:17:04;;;;;;;7.88;1.95;;;-1.00;99.90;;;;;;2055596;28;20231;-64
2021/03/28 01:18:11;;;;;;;4.15;1.80;;;-1.10;99.90;;;;;;2069472;28;20663;-65
2021/03/28 01:20:04;;;;;;;5.82;1.92;;;-1.10;99.90;;;;;;2081178;28;20181;-65
2021/03/28 01:21:36;;;;;;;5.88;2.00;;;-1.10;99.90;;;;;;2080623;28;20167;-65
2021/03/28 01:23:08;;;;;;;6.72;2.05;;;-1.10;99.90;;;;;;2080543;28;20166;-65
2021/03/28 01:24:14;;;;;;;7.68;2.22;;;-1.10;99.90;;;;;;2076219;28;20173;-65
2021/03/28 01:26:06;;;;;;;5.13;1.63;;;-1.10;99.90;;;;;;2080559;28;20189;-65
2021/03/28 01:27:17;;;;;;;6.07;2.17;;;-1.20;99.90;;;;;;2078051;28;20205;-65
2021/03/28 01:28:27;;;;;;;6.38;2.03;;;-1.20;99.90;;;;;;2080323;28;20648;-65
2021/03/28 01:29:44;;;;;;;4.85;1.80;;;-1.20;99.90;;;;;;2073510;28;20182;-65
2021/03/28 01:31:16;;;;;;;3.28;1.75;;;-1.20;99.90;;;;;;2074386;28;20785;-64
2021/03/28 01:32:33;;;;;;;8.50;2.42;;;-1.20;99.90;;;;;;2070087;28;20197;-65
2021/03/28 01:34:01;;;;;;;7.32;2.17;;;-1.30;99.90;;;;;;2080648;28;20173;-64
2021/03/28 01:35:11;;;;;;;4.07;1.63;;;-1.30;99.90;;;;;;2080696;28;20170;-66
2021/03/28 01:36:23;;;;;;;5.95;2.03;;;-1.30;99.90;;;;;;2080883;28;20753;-65
2021/03/28 01:37:42;;;;;;;4.03;1.80;;;-1.30;99.90;;;;;;2080544;28;20170;-65
2021/03/28 01:38:58;;;;;;;5.13;1.70;;;-1.30;99.90;;;;;;2074684;28;20175;-65
2021/03/28 01:40:24;;;;;;;6.13;1.83;;;-1.20;99.90;;;;;;2074331;28;20204;-64
2021/03/28 01:41:37;;;;;;;6.90;1.60;;;-1.20;99.90;;;;;;2075079;28;20169;-65
2021/03/28 01:43:07;;;;;;;3.75;1.70;;;-1.20;99.90;;;;;;2073791;28;20550;-65
2021/03/28 01:44:33;;;;;;;7.45;2.17;;;-1.20;99.90;;;;;;2080713;28;20177;-65
2021/03/28 01:46:04;;;;;;;4.35;1.80;;;-1.20;99.90;;;;;;2080336;28;20617;-65
2021/03/28 01:47:24;;;;;;;4.72;1.70;;;-1.20;99.90;;;;;;2080666;28;20260;-64
2021/03/28 01:48:55;;;;;;;6.55;1.73;;;-1.20;99.90;;;;;;2080876;28;20339;-64
2021/03/28 01:50:19;;;;;;;4.13;1.60;;;-1.30;99.90;;;;;;2081079;28;20220;-66
2021/03/28 01:51:56;;;;;;;3.60;1.70;;;-1.20;99.90;;;;;;2079734;28;20199;-65
2021/03/28 01:53:03;;;;;;;5.22;1.75;;;-1.20;99.90;;;;;;2077017;28;20200;-65
2021/03/28 01:54:25;;;;;;;3.35;1.45;;;-1.20;99.90;;;;;;2080434;28;20288;-64
2021/03/28 01:55:56;;;;;;;3.08;1.35;;;-1.30;99.90;;;;;;2080925;28;20531;-66
2021/03/28 01:57:23;;;;;;;4.13;1.67;;;-1.30;99.90;;;;;;2080778;28;20264;-66
2021/03/28 01:59:00;;;;;;;5.13;1.50;;;-1.30;99.90;;;;;;2080819;28;20170;-65
2021/03/28 02:00:27;;;;;;;3.25;1.65;;;-1.30;99.90;;;;;;2080434;28;20181;-65
2021/03/28 02:01:41;;;;;;;4.82;1.50;;;-1.20;99.90;;;;;;2075062;28;20211;-64
2021/03/28 02:03:02;;;;;;;5.10;1.85;;;-1.20;99.90;;;;;;2074042;28;20165;-64
2021/03/28 02:04:13;;;;;;;2.70;1.50;;;-1.20;99.90;;;;;;2080629;28;20219;-64
2021/03/28 02:05:55;;;;;;;2.17;1.40;;;-1.20;99.90;;;;;;2080229;28;20193;-65
2021/03/28 02:07:29;;;;;;;8.15;1.75;;;-1.20;99.90;;;;;;2080507;28;20256;-65
2021/03/28 02:08:41;;;;;;;2.97;1.60;;;-1.20;99.90;;;;;;2080830;28;20681;-65
2021/03/28 02:10:10;;;;;;;4.55;1.90;;;-1.20;99.90;;;;;;2080812;28;20159;-65
2021/03/28 02:11:57;;;;;;;8.40;1.60;;;-1.20;99.90;;;;;;2080295;28;20185;-65
2021/03/28 02:13:31;;;;;;;3.28;1.80;;;-1.30;99.90;;;;;;2080355;28;20177;-66
2021/03/28 02:14:59;;;;;;;2.97;1.58;;;-1.30;99.90;;;;;;2080579;28;20584;-64
2021/03/28 02:16:12;;;;;;;3.83;1.52;;;-1.30;99.90;;;;;;2080696;28;20280;-65
2021/03/28 02:17:33;;;;;;;4.03;1.85;;;-1.20;99.90;;;;;;2080253;28;20744;-65
2021/03/28 02:18:55;;;;;;;4.00;1.20;;;-1.30;99.90;;;;;;2080421;28;20165;-65
2021/03/28 02:20:27;;;;;;;9.30;2.10;;;-1.30;99.90;;;;;;2080875;28;20184;-65
2021/03/28 02:22:12;;;;;;;3.55;1.63;;;-1.30;99.90;;;;;;2079820;28;20176;-65
2021/03/28 02:23:36;;;;;;;6.70;1.50;;;-1.20;99.90;;;;;;2077990;28;20172;-65
2021/03/28 02:24:37;;;;;;;4.72;1.88;;;-1.20;99.90;;;;;;2080376;28;20164;-65
2021/03/28 02:26:02;;;;;;;7.77;3.13;;;-1.10;99.90;;;;;;2080759;28;20202;-64
2021/03/28 02:27:21;;;;;;;2.97;1.60;;;-1.10;99.90;;;;;;2080223;28;20169;-66
2021/03/28 02:28:45;;;;;;;5.82;2.10;;;-1.10;99.90;;;;;;2080347;28;20177;-64
2021/03/28 02:30:18;;;;;;;6.22;2.03;;;-1.10;99.90;;;;;;2080259;28;20161;-64
2021/03/28 02:31:48;;;;;;;5.15;1.70;;;-1.10;99.90;;;;;;2049976;28;20220;-65
2021/03/28 02:33:06;;;;;;;5.68;1.67;;;-1.20;99.90;;;;;;2080060;28;20184;-65
2021/03/28 02:34:24;;;;;;;3.78;1.73;;;-1.20;99.90;;;;;;2074456;28;20166;-66
2021/03/28 02:36:03;;;;;;;4.43;1.80;;;-1.20;99.90;;;;;;2080427;28;20168;-65
2021/03/28 02:37:20;;;;;;;4.25;1.75;;;-1.30;99.90;;;;;;2080746;28;20174;-65
2021/03/28 02:38:34;;;;;;;5.47;1.70;;;-1.30;99.90;;;;;;2080787;28;20169;-65
2021/03/28 02:39:57;;;;;;;4.82;1.70;;;-1.30;99.90;;;;;;2080675;28;20248;-65
2021/03/28 02:41:44;;;;;;;7.15;1.85;;;-1.30;99.90;;;;;;2079292;28;20205;-65
2021/03/28 02:43:14;;;;;;;3.78;1.60;;;-1.30;99.90;;;;;;2080496;28;20180;-65
2021/03/28 02:44:55;;;;;;;3.70;2.05;;;-1.30;99.90;;;;;;2079401;28;20217;-64
2021/03/28 02:46:07;;;;;;;5.38;1.65;;;-1.40;99.90;;;;;;2088107;28;20273;-65
2021/03/28 02:47:23;;;;;;;2.20;1.30;;;-1.40;99.90;;;;;;2080978;28;20174;-65
2021/03/28 02:48:43;;;;;;;3.58;1.20;;;-1.40;99.90;;;;;;2089701;22;20471;-69
2021/03/28 02:50:14;;;;;;;6.68;1.85;;;-1.40;99.90;;;;;;2064497;28;20177;-69
2021/03/28 02:51:46;;;;;;;10.07;3.10;;;-1.40;99.90;;;;;;2064057;28;20175;-69
2021/03/28 02:53:47;;;;;;;7.15;1.75;;;-1.40;99.90;;;;;;2064329;28;20178;-69
2021/03/28 02:55:31;;;;;;;6.35;1.50;;;-1.50;99.90;;;;;;2039449;29;20181;-68
2021/03/28 02:57:11;;;;;;;4.55;1.65;;;-1.50;99.90;;;;;;2037104;29;20193;-69
2021/03/28 02:58:23;;;;;;;5.75;1.45;;;-1.50;99.90;;;;;;2028598;29;20264;-68
2021/03/28 02:59:59;;;;;;;3.53;1.58;;;-1.50;99.90;;;;;;2047365;29;20200;-69
2021/03/28 03:01:29;;;;;;;6.45;1.40;;;-1.50;99.90;;;;;;2038528;29;20691;-67
2021/03/28 03:02:51;;;;;;;6.80;1.75;;;-1.50;99.90;;;;;;2063751;28;20174;-68
2021/03/28 03:04:22;;;;;;;7.35;1.55;;;-1.50;99.90;;;;;;2058525;28;20651;-68
2021/03/28 03:05:46;;;;;;;7.80;1.70;;;-1.40;99.90;;;;;;2064069;28;20214;-68
2021/03/28 03:07:20;;;;;;;4.07;1.50;;;-1.40;99.90;;;;;;2064414;28;20162;-68
2021/03/28 03:08:35;;;;;;;9.80;1.73;;;-1.40;99.90;;;;;;2065646;28;20289;-67
2021/03/28 03:10:09;;;;;;;9.55;1.88;;;-1.40;99.90;;;;;;2065318;28;20181;-68
2021/03/28 03:11:34;;;;;;;4.90;1.63;;;-1.40;99.90;;;;;;2064835;28;20483;-69
2021/03/28 03:12:53;;;;;;;6.18;1.80;;;-1.40;99.90;;;;;;2066129;28;20194;-68
2021/03/28 03:14:34;;;;;;;3.38;1.40;;;-1.40;99.90;;;;;;2065431;28;20167;-69
2021/03/28 03:15:47;;;;;;;8.68;1.90;;;-1.30;99.90;;;;;;2065586;28;20173;-67
2021/03/28 03:17:26;;;;;;;4.22;1.60;;;-1.30;99.90;;;;;;2065807;28;20191;-69
2021/03/28 03:18:48;;;;;;;5.75;1.50;;;-1.30;99.90;;;;;;2065207;28;20218;-68
2021/03/28 03:20:20;;;;;;;4.75;1.70;;;-1.30;99.90;;;;;;2060234;28;20179;-69
2021/03/28 03:22:08;;;;;;;6.88;1.40;;;-1.30;99.90;;;;;;2064780;28;20187;-68
2021/03/28 03:23:36;;;;;;;4.38;1.40;;;-1.20;99.90;;;;;;2040731;29;20200;-68
2021/03/28 03:25:20;;;;;;;5.95;1.30;;;-1.20;99.90;;;;;;2065819;28;20163;-68
2021/03/28 03:27:13;;;;;;;7.28;1.42;;;-1.30;99.90;;;;;;2065952;28;20189;-67
2021/03/28 03:28:38;;;;;;;4.43;1.40;;;-1.30;99.90;;;;;;2065807;28;20386;-71
2021/03/28 03:30:16;;;;;;;9.13;2.00;;;-1.30;99.90;;;;;;2065814;28;20240;-68
2021/03/28 03:31:35;;;;;;;5.47;1.40;;;-1.40;99.90;;;;;;2064628;28;20162;-68
2021/03/28 03:33:04;;;;;;;5.47;1.42;;;-1.40;99.90;;;;;;2065188;28;20221;-68
2021/03/28 03:34:42;;;;;;;3.20;1.50;;;-1.50;99.90;;;;;;2065907;28;20193;-68
2021/03/28 03:35:56;;;;;;;5.05;1.58;;;-1.50;99.90;;;;;;2065777;28;20174;-68
2021/03/28 03:37:13;;;;;;;5.97;1.63;;;-1.50;99.90;;;;;;2065103;28;20272;-68
2021/03/28 03:38:34;;;;;;;5.35;1.45;;;-1.60;99.90;;;;;;2065190;28;20206;-68
2021/03/28 03:39:48;;;;;;;2.65;1.23;;;-1.60;99.90;;;;;;2065339;28;20257;-68
2021/03/28 03:41:27;;;;;;;6.55;1.67;;;-1.60;99.90;;;;;;2064668;28;20257;-67
2021/03/28 03:43:00;;;;;;;4.03;1.40;;;-1.60;99.90;;;;;;2062011;28;20651;-68
2021/03/28 03:44:36;;;;;;;6.35;1.58;;;-1.60;99.90;;;;;;2058173;28;20688;-68
2021/03/28 03:46:06;;;;;;;3.63;1.33;;;-1.60;99.90;;;;;;2065045;28;20220;-68
2021/03/28 03:47:10;;;;;;;3.25;1.25;;;-1.70;99.90;;;;;;2065431;28;20185;-68
2021/03/28 03:48:10;;;;;;;4.43;1.60;;;-1.60;99.90;;;;;;2064788;28;20281;-68
2021/03/28 03:49:29;;;;;;;8.23;1.70;;;-1.70;99.90;;;;;;2065088;28;20178;-68
2021/03/28 03:50:57;;;;;;;5.50;1.30;;;-1.70;99.90;;;;;;2065164;28;20171;-68
2021/03/28 03:52:16;;;;;;;4.60;1.50;;;-1.70;99.90;;;;;;2065422;28;20649;-69
2021/03/28 03:53:46;;;;;;;6.70;1.60;;;-1.70;99.90;;;;;;2064891;28;20241;-68
2021/03/28 03:55:14;;;;;;;4.88;1.50;;;-1.70;99.90;;;;;;2065350;28;20551;-68
2021/03/28 03:56:44;;;;;;;5.72;1.38;;;-1.70;99.90;;;;;;2065243;28;20198;-67
2021/03/28 03:58:25;;;;;;;7.07;1.40;;;-1.70;99.90;;;;;;2065229;28;20317;-68
2021/03/28 03:59:47;;;;;;;5.68;1.45;;;-1.70;99.90;;;;;;2064793;28;20239;-68
2021/03/28 04:01:01;;;;;;;3.83;1.40;;;-1.80;99.90;;;;;;2059547;28;20242;-68
2021/03/28 04:02:14;;;;;;;4.18;1.38;;;-1.80;99.90;;;;;;2059048;28;20204;-68
2021/03/28 04:03:31;;;;;;;7.07;1.60;;;-1.80;99.90;;;;;;2058055;28;20214;-68
2021/03/28 04:04:47;;;;;;;4.40;1.30;;;-1.80;99.90;;;;;;2059133;28;20175;-68
2021/03/28 04:06:12;;;;;;;3.80;1.73;;;-1.80;99.90;;;;;;2065032;28;20178;-68
2021/03/28 04:08:03;;;;;;;6.03;1.67;;;-1.80;99.90;;;;;;2064869;28;20175;-68
2021/03/28 04:09:24;;;;;;;5.00;1.60;;;-1.80;99.90;;;;;;2040316;29;20676;-68
2021/03/28 04:10:33;;;;;;;3.95;1.58;;;-1.80;99.90;;;;;;2045955;28;20188;-68
2021/03/28 04:12:05;;;;;;;5.63;1.38;;;-1.80;99.90;;;;;;2064835;28;20202;-68
2021/03/28 04:13:20;;;;;;;4.88;1.50;;;-1.80;99.90;;;;;;2065518;28;20202;-68
2021/03/28 04:15:02;;;;;;;6.38;1.42;;;-1.80;99.90;;;;;;2065581;28;20162;-70
2021/03/28 04:16:28;;;;;;;4.82;1.40;;;-1.80;99.90;;;;;;2064931;28;20263;-68
2021/03/28 04:17:55;;;;;;;5.82;1.63;;;-1.80;99.90;;;;;;2064987;28;20179;-68
2021/03/28 04:19:29;;;;;;;6.22;1.52;;;-1.80;99.90;;;;;;2065083;28;20171;-68
2021/03/28 04:20:57;;;;;;;4.95;1.52;;;-1.80;99.90;;;;;;2056386;28;20193;-68
2021/03/28 04:22:34;;;;;;;5.85;1.60;;;-1.80;99.90;;;;;;2060298;28;20217;-68
2021/03/28 04:24:06;;;;;;;6.30;1.50;;;-1.80;99.90;;;;;;2065073;28;20220;-68
2021/03/28 04:25:38;;;;;;;4.40;1.30;;;-1.90;99.90;;;;;;2065318;28;20198;-68
2021/03/28 04:27:05;;;;;;;6.85;1.50;;;-1.90;99.90;;;;;;2064765;28;20589;-68
2021/03/28 04:28:37;;;;;;;6.53;1.95;;;-1.90;99.90;;;;;;2064990;28;20210;-68
2021/03/28 04:29:48;;;;;;;4.13;1.50;;;-1.90;99.90;;;;;;2064635;28;20355;-68
2021/03/28 04:30:58;;;;;;;7.22;1.65;;;-2.00;99.90;;;;;;2058264;28;20183;-67
2021/03/28 04:32:17;;;;;;;4.68;1.70;;;-1.90;99.90;;;;;;2064870;28;20182;-68
2021/03/28 04:33:40;;;;;;;6.80;1.45;;;-2.00;99.90;;;;;;2065525;28;20673;-68
2021/03/28 04:34:59;;;;;;;5.75;1.48;;;-2.00;99.90;;;;;;2064944;28;20205;-68
2021/03/28 04:36:13;;;;;;;4.07;1.63;;;-1.90;99.90;;;;;;2064942;28;20600;-68
2021/03/28 04:37:35;;;;;;;5.40;1.40;;;-2.00;99.90;;;;;;2064863;28;20178;-68
2021/03/28 04:39:39;;;;;;;5.95;1.48;;;-2.00;99.90;;;;;;2065231;28;20726;-68
2021/03/28 04:40:59;;;;;;;4.05;1.58;;;-2.00;99.90;;;;;;2045141;28;20219;-69
2021/03/28 04:42:24;;;;;;;2.63;1.30;;;-2.00;99.90;;;;;;2061722;28;20210;-68
2021/03/28 04:43:55;;;;;;;5.75;1.92;;;-2.00;99.90;;;;;;2064823;28;20171;-69
2021/03/28 04:45:17;;;;;;;6.18;1.45;;;-2.00;99.90;;;;;;2064432;28;20699;-68
2021/03/28 04:46:32;;;;;;;4.30;1.40;;;-2.00;99.90;;;;;;2064972;28;20222;-68
2021/03/28 04:48:43;;;;;;;3.40;1.40;;;-2.00;99.90;;;;;;2064618;28;20190;-68
2021/03/28 04:50:14;;;;;;;2.50;0.98;;;-2.00;99.90;;;;;;2056001;28;20191;-68
2021/03/28 04:51:51;;;;;;;9.93;2.28;;;-2.00;99.90;;;;;;2064430;28;20285;-68
2021/03/28 04:53:09;;;;;;;1.80;1.23;;;-2.00;99.90;;;;;;2065019;28;20164;-68
2021/03/28 04:55:14;;;;;;;4.90;1.50;;;-2.00;99.90;;;;;;2064615;28;20665;-68
2021/03/28 04:56:52;;;;;;;5.15;1.50;;;-2.00;99.90;;;;;;2059563;28;20241;-68
2021/03/28 04:58:37;;;;;;;2.72;1.42;;;-2.00;99.90;;;;;;2064742;28;20181;-68
2021/03/28 05:00:11;;;;;;;4.82;1.48;;;-2.00;99.90;;;;;;2064846;28;20568;-68
2021/03/28 05:01:39;;;;;;;4.00;1.77;;;-2.00;99.90;;;;;;2064372;28;20182;-68
2021/03/28 05:03:08;;;;;;;7.43;1.90;;;-2.10;99.90;;;;;;2064483;28;20166;-68
2021/03/28 05:04:38;;;;;;;6.53;1.80;;;-2.10;99.90;;;;;;2059968;28;20662;-68
2021/03/28 05:06:23;;;;;;;6.85;1.85;;;-2.10;99.90;;;;;;2064479;28;20802;-68
2021/03/28 05:08:25;;;;;;;4.53;1.27;;;-2.10;99.90;;;;;;2064723;28;20193;-68
2021/03/28 05:10:11;;;;;;;5.63;1.42;;;-2.10;99.90;;;;;;2064115;28;20182;-68
2021/03/28 05:11:48;;;;;;;3.25;1.25;;;-2.10;99.90;;;;;;2064174;28;20244;-68
2021/03/28 05:13:29;;;;;;;5.43;1.60;;;-2.10;99.90;;;;;;2064961;28;20257;-68
2021/03/28 05:14:47;;;;;;;4.10;1.52;;;-2.10;99.90;;;;;;2064693;28;20249;-68
2021/03/28 05:16:17;;;;;;;3.75;1.40;;;-2.10;99.90;;;;;;2064728;28;20198;-67
2021/03/28 05:17:51;;;;;;;3.13;1.30;;;-2.10;99.90;;;;;;2064275;28;20638;-68
2021/03/28 05:19:21;;;;;;;2.72;1.30;;;-2.10;99.90;;;;;;2064664;28;20177;-67
2021/03/28 05:21:23;;;;;;;3.88;1.50;;;-2.20;99.90;;;;;;2064662;28;20221;-68
2021/03/28 05:23:00;;;;;;;6.70;1.40;;;-2.20;99.90;;;;;;2047729;29;20200;-68
2021/03/28 05:24:29;;;;;;;6.90;1.48;;;-2.10;99.90;;;;;;2064711;28;20171;-67
2021/03/28 05:26:14;;;;;;;4.53;1.70;;;-2.10;99.90;;;;;;2064556;28;20210;-68
2021/03/28 05:27:47;;;;;;;6.80;1.65;;;-2.10;99.90;;;;;;2044371;28;20624;-68
2021/03/28 05:29:21;;;;;;;10.50;1.95;;;-2.10;99.90;;;;;;2060451;28;20182;-69
2021/03/28 05:30:41;;;;;;;6.72;1.70;;;-2.00;99.90;;;;;;2068364;28;20565;-68
2021/03/28 05:32:08;;;;;;;7.22;1.60;;;-2.00;99.90;;;;;;2069593;28;20269;-68
2021/03/28 05:33:39;;;;;;;5.50;1.80;;;-2.00;99.90;;;;;;2065024;28;20264;-68
2021/03/28 05:35:04;;;;;;;5.47;2.00;;;-2.00;99.90;;;;;;2064927;28;20186;-68
2021/03/28 05:36:50;;;;;;;2.67;1.40;;;-1.90;99.90;;;;;;2064921;28;20201;-68
2021/03/28 05:38:14;;;;;;;6.57;1.90;;;-1.90;99.90;;;;;;2064821;28;20175;-67
2021/03/28 05:40:15;;;;;;;3.97;1.60;;;-1.90;99.90;;;;;;2064841;28;20175;-68
2021/03/28 05:41:40;;;;;;;4.38;1.50;;;-1.80;99.90;;;;;;2049822;28;20216;-67
2021/03/28 05:43:05;;;;;;;2.38;1.30;;;-1.80;99.90;;;;;;2064516;28;20674;-68
2021/03/28 05:44:35;;;;;;;2.58;1.30;;;-1.80;99.90;;;;;;2064765;28;20198;-68
2021/03/28 05:46:11;;;;;;;4.65;1.42;;;-1.80;99.90;;;;;;2064631;28;20210;-68
2021/03/28 05:47:52;;;;;;;4.35;1.42;;;-1.80;99.90;;;;;;2063877;28;20587;-66
2021/03/28 05:49:13;;;;;;;5.45;1.40;;;-1.80;99.90;;;;;;2064660;28;20205;-67
2021/03/28 05:50:32;;;;;;;3.53;1.20;;;-1.80;99.90;;;;;;2064167;28;20202;-67
2021/03/28 05:51:36;;;;;;;2.97;1.60;;;-1.70;99.90;;;;;;2057854;28;20178;-67
2021/03/28 05:53:13;;;;;;;4.43;1.65;;;-1.70;99.90;;;;;;2056436;28;20219;-67
2021/03/28 05:54:47;;;;;;;5.47;1.58;;;-1.70;99.90;;;;;;2064514;28;20224;-67
2021/03/28 05:56:32;;;;;;;5.53;1.77;;;-1.70;99.90;;;;;;2064735;28;20203;-67
2021/03/28 05:58:06;;;;;;;4.72;1.70;;;-1.70;99.90;;;;;;2064529;28;20185;-68
2021/03/28 05:59:47;;;;;;;5.82;1.48;;;-1.60;99.90;;;;;;2064907;28;20177;-67
2021/03/28 06:01:27;;;;;;;5.03;1.52;;;-1.60;99.90;;;;;;2064589;28;20826;-68
2021/03/28 06:02:45;;;;;;;7.53;1.60;;;-1.60;99.90;;;;;;2064079;28;20734;-67
2021/03/28 06:04:17;;;;;;;3.00;1.30;;;-1.50;99.90;;;;;;2064190;28;20158;-67
2021/03/28 06:06:11;;;;;;;9.48;1.83;;;-1.50;99.90;;;;;;2065075;28;20240;-67
2021/03/28 06:07:42;;;;;;;5.03;1.50;;;-1.50;99.90;;;;;;2049298;28;20244;-67
2021/03/28 06:09:21;;;;;;;3.35;1.60;;;-1.50;99.90;;;;;;2064123;28;20321;-68
2021/03/28 06:10:43;;;;;;;3.85;1.77;;;-1.40;99.90;;;;;;2049060;28;20239;-68
2021/03/28 06:12:32;;;;;;;6.78;1.75;;;-1.40;99.90;;;;;;2064149;28;20170;-67
2021/03/28 06:14:16;;;;;;;5.78;1.80;;;-1.40;99.90;;;;;;2064733;28;20178;-68
2021/03/28 06:15:32;;;;;;;5.97;1.70;;;-1.30;99.90;;;;;;2064967;28;20175;-68
2021/03/28 06:17:06;;;;;;;6.32;2.00;;;-1.30;99.90;;;;;;2064574;28;20273;-67
2021/03/28 06:18:46;;;;;;;6.45;1.60;;;-1.30;99.90;;;;;;2063999;28;20211;-67
2021/03/28 06:20:11;;;;;;;6.82;1.83;;;-1.20;99.90;;;;;;2064478;28;20175;-67
2021/03/28 06:21:28;;;;;;;3.40;1.63;;;-1.20;99.90;;;;;;2064178;28;20175;-67
2021/03/28 06:22:41;;;;;;;6.68;1.80;;;-1.10;99.90;;;;;;2064020;28;20289;-67
2021/03/28 06:24:18;;;;;;;7.78;2.40;;;-1.10;99.90;;;;;;2065822;28;20597;-67
2021/03/28 06:26:06;;;;;;;5.60;1.75;;;-1.00;99.90;;;;;;2067313;28;20289;-67
2021/03/28 06:27:31;;;;;;;3.42;1.60;;;-0.90;99.90;;;;;;2064706;28;20198;-68
2021/03/28 06:29:09;;;;;;;2.42;1.45;;;-0.90;99.90;;;;;;2064704;28;20200;-68
2021/03/28 06:30:31;;;;;;;4.72;1.83;;;-0.90;99.90;;;;;;2064767;28;20238;-67
2021/03/28 06:32:15;;;;;;;3.80;1.70;;;-0.90;99.90;;;;;;2064411;28;20186;-67
2021/03/28 06:34:01;;;;;;;3.72;1.77;;;-0.90;99.90;;;;;;2067116;28;20210;-68
2021/03/28 06:35:44;;;;;;;6.40;2.25;;;-0.80;99.90;;;;;;2062520;28;20611;-67
2021/03/28 06:37:18;;;;;;;3.63;2.20;;;-0.80;99.90;;;;;;2064610;28;20173;-68
2021/03/28 06:38:50;;;;;;;6.43;2.22;;;-0.80;99.90;;;;;;2064080;28;20633;-67
2021/03/28 06:40:37;;;;;;;5.97;1.90;;;-0.80;99.90;;;;;;2051449;28;20192;-67
2021/03/28 06:42:17;;;;;;;4.80;1.70;;;-0.80;99.90;;;;;;2064007;28;20159;-68
2021/03/28 06:44:07;;;;;;;4.20;1.63;;;-0.80;99.90;;;;;;2065906;28;20680;-68
2021/03/28 06:45:46;;;;;;;4.97;1.98;;;-0.70;99.90;;;;;;2066362;28;20708;-68
2021/03/28 06:47:25;;;;;;;4.82;2.45;;;-0.60;99.90;;;;;;2066286;28;20580;-68
2021/03/28 06:49:12;;;;;;;5.57;1.83;;;-0.60;99.90;;;;;;2065885;28;20227;-68
2021/03/28 06:50:27;;;;;;;6.13;2.28;;;-0.50;99.90;;;;;;2065307;28;20191;-68
2021/03/28 06:51:39;;;;;;;4.10;2.10;;;-0.50;99.90;;;;;;2065072;28;20307;-68
2021/03/28 06:53:19;;;;;;;8.63;2.13;;;-0.50;99.90;;;;;;2065372;28;20221;-68
2021/03/28 06:54:50;;;;;;;6.45;2.00;;;-0.40;99.90;;;;;;2065780;28;20191;-67
2021/03/28 06:56:42;;;;;;;4.80;1.80;;;-0.40;99.90;;;;;;2065306;28;20192;-68
2021/03/28 06:58:15;;;;;;;3.72;1.60;;;-0.30;99.90;;;;;;2065939;28;20226;-68
2021/03/28 06:59:35;;;;;;;5.70;2.15;;;-0.30;99.90;;;;;;2066165;28;20177;-67
2021/03/28 07:01:28;;;;;;;8.50;2.30;;;-0.30;99.90;;;;;;2065349;28;20163;-67
2021/03/28 07:03:06;;;;;;;5.95;2.10;;;-0.20;99.90;;;;;;2065647;28;20685;-68
2021/03/28 07:04:22;;;;;;;7.32;2.05;;;-0.20;99.90;;;;;;2065752;28;20652;-68
2021/03/28 07:05:57;;;;;;;3.10;1.80;;;-0.10;99.90;;;;;;2065320;28;20218;-68
2021/03/28 07:07:19;;;;;;;3.38;1.95;;;-0.10;99.90;;;;;;2061775;28;20189;-68
2021/03/28 07:08:38;;;;;;;2.58;1.73;;;0.00;99.90;;;;;;2060052;28;20198;-67
2021/03/28 07:10:48;;;;;;;5.03;2.30;;;0.10;99.90;;;;;;2065612;28;20248;-68
2021/03/28 07:12:02;;;;;;;3.85;1.65;;;0.20;99.90;;;;;;2053622;28;20229;-68
2021/03/28 07:13:33;;;;;;;3.72;1.85;;;0.30;99.90;;;;;;2065418;28;20647;-67
2021/03/28 07:15:10;;;;;;;4.82;2.25;;;0.30;99.90;;;;;;2069164;28;20209;-67
2021/03/28 07:16:53;;;;;;;4.45;1.63;;;0.40;99.90;;;;;;2068983;28;20551;-68
2021/03/28 07:18:18;;;;;;;6.30;1.80;;;0.40;99.90;;;;;;2065835;28;20633;-68
2021/03/28 07:20:22;;;;;;;7.10;1.80;;;0.50;99.90;;;;;;2069234;28;20189;-67
2021/03/28 07:21:34;;;;;;;8.52;3.70;;;0.60;99.90;;;;;;2067659;28;20199;-68
2021/03/28 07:22:48;;;;;;;9.27;3.30;;;0.70;99.90;;;;;;2070630;28;20177;-67
2021/03/28 07:24:23;;;;;;;8.55;4.60;;;0.80;99.90;;;;;;2069127;28;20195;-67
2021/03/28 07:25:25;;;;;;;7.13;2.95;;;0.90;99.90;;;;;;2069045;28;20209;-68
2021/03/28 07:27:35;;;;;;;13.82;6.05;;;1.00;99.90;;;;;;2068997;28;20182;-68
2021/03/28 07:29:07;;;;;;;7.05;3.60;;;1.10;99.90;;;;;;2053748;28;20261;-69
2021/03/28 07:30:54;;;;;;;6.75;2.70;;;1.20;99.90;;;;;;2069708;28;20195;-69
2021/03/28 07:32:17;;;;;;;7.00;4.60;;;1.40;99.90;;;;;;2069726;28;20684;-68
2021/03/28 07:33:36;;;;;;;8.30;3.58;;;1.50;99.90;;;;;;2069346;28;20176;-68
2021/03/28 07:34:46;;;;;;;13.15;6.15;;;1.70;99.90;;;;;;2071118;28;20189;-67
2021/03/28 07:35:59;;;;;;;8.57;4.22;;;1.80;99.90;;;;;;2073800;28;20170;-67
2021/03/28 07:37:37;;;;;;;12.40;9.60;;;1.90;99.90;;;;;;2061835;28;20185;-68